createdAt,value
2018-12-03T00:01:50.530Z,9.70
2018-12-03T00:04:22.180Z,9.60
2018-12-03T00:06:50.379Z,9.70
2018-12-03T00:09:18.765Z,9.60
2018-12-03T00:11:46.972Z,9.70
2018-12-03T00:14:15.109Z,9.60
2018-12-03T00:16:43.244Z,9.70
2018-12-03T00:19:11.368Z,9.60
2018-12-03T00:21:39.483Z,9.60
2018-12-03T00:24:07.736Z,9.60
2018-12-03T00:26:35.914Z,9.70
2018-12-03T00:29:04.143Z,9.70
2018-12-03T00:31:32.242Z,9.70
2018-12-03T00:34:00.363Z,9.70
2018-12-03T00:36:28.472Z,9.70
2018-12-03T00:38:56.582Z,9.70
2018-12-03T00:41:24.689Z,9.70
2018-12-03T00:43:52.812Z,9.70
2018-12-03T00:46:20.919Z,9.60
2018-12-03T00:48:49.048Z,9.60
2018-12-03T00:51:17.149Z,9.60
2018-12-03T00:53:45.276Z,9.60
2018-12-03T00:56:13.389Z,9.60
2018-12-03T00:58:41.507Z,9.50
2018-12-03T01:01:09.612Z,9.50
2018-12-03T01:03:37.721Z,9.50
2018-12-03T01:06:06.273Z,9.50
2018-12-03T01:08:34.541Z,9.50
2018-12-03T01:11:02.676Z,9.50
2018-12-03T01:13:30.792Z,9.50
2018-12-03T01:15:58.898Z,9.50
2018-12-03T01:18:27.024Z,9.50
2018-12-03T01:20:55.173Z,9.50
2018-12-03T01:23:23.306Z,9.50
2018-12-03T01:25:51.624Z,9.50
2018-12-03T01:28:19.740Z,9.50
2018-12-03T01:30:47.834Z,9.60
2018-12-03T01:33:15.975Z,9.60
2018-12-03T01:35:44.566Z,9.70
2018-12-03T01:38:12.695Z,9.60
2018-12-03T01:40:40.818Z,9.70
2018-12-03T01:43:08.980Z,9.70
2018-12-03T01:45:37.109Z,9.70
2018-12-03T01:48:05.293Z,9.60
2018-12-03T01:50:33.413Z,9.60
2018-12-03T01:53:01.513Z,9.60
2018-12-03T01:55:29.841Z,9.50
2018-12-03T01:57:57.967Z,9.50
2018-12-03T02:00:26.106Z,9.50
2018-12-03T02:02:54.202Z,9.40
2018-12-03T02:05:22.367Z,9.40
2018-12-03T02:07:50.470Z,9.40
2018-12-03T02:10:18.585Z,9.40
2018-12-03T02:12:46.683Z,9.40
2018-12-03T02:15:15.708Z,9.40
2018-12-03T02:17:44.236Z,9.40
2018-12-03T02:20:13.402Z,9.40
2018-12-03T02:22:42.531Z,9.40
2018-12-03T02:25:11.057Z,9.40
2018-12-03T02:27:39.177Z,9.30
2018-12-03T02:30:12.368Z,9.30
2018-12-03T02:32:40.610Z,9.30
2018-12-03T02:35:09.748Z,9.30
2018-12-03T02:37:37.983Z,9.20
2018-12-03T02:40:08.731Z,9.30
2018-12-03T02:42:36.942Z,9.30
2018-12-03T02:45:06.373Z,9.30
2018-12-03T02:47:34.514Z,9.30
2018-12-03T02:50:02.736Z,9.30
2018-12-03T02:52:30.855Z,9.30
2018-12-03T02:54:58.993Z,9.30
2018-12-03T02:57:27.114Z,9.30
2018-12-03T02:59:55.263Z,9.40
2018-12-03T03:02:23.388Z,9.40
2018-12-03T03:04:51.514Z,9.40
2018-12-03T03:07:19.659Z,9.40
2018-12-03T03:09:47.811Z,9.40
2018-12-03T03:12:15.928Z,9.40
2018-12-03T03:14:44.071Z,9.40
2018-12-03T03:17:12.210Z,9.40
2018-12-03T03:19:40.342Z,9.40
2018-12-03T03:22:08.476Z,9.40
2018-12-03T03:24:36.853Z,9.50
2018-12-03T03:27:04.974Z,9.50
2018-12-03T03:29:33.116Z,9.50
2018-12-03T03:32:01.257Z,9.50
2018-12-03T03:34:29.425Z,9.50
2018-12-03T03:36:57.529Z,9.50
2018-12-03T03:39:25.693Z,9.50
2018-12-03T03:41:53.804Z,9.50
2018-12-03T03:44:21.967Z,9.50
2018-12-03T03:46:50.080Z,9.50
2018-12-03T03:49:18.225Z,9.50
2018-12-03T03:51:46.344Z,9.50
2018-12-03T03:54:14.472Z,9.50
2018-12-03T03:56:42.613Z,9.50
2018-12-03T03:59:10.734Z,9.50
2018-12-03T04:01:38.900Z,9.50
2018-12-03T04:04:07.045Z,9.50
2018-12-03T04:06:35.204Z,9.50
2018-12-03T04:09:03.489Z,9.50
2018-12-03T04:11:31.714Z,9.50
2018-12-03T04:13:59.892Z,9.50
2018-12-03T04:16:28.533Z,9.50
2018-12-03T04:18:56.694Z,9.50
2018-12-03T04:21:24.875Z,9.60
2018-12-03T04:23:53.466Z,9.50
2018-12-03T04:26:22.062Z,9.50
2018-12-03T04:28:50.158Z,9.50
2018-12-03T04:31:18.310Z,9.60
2018-12-03T04:33:46.512Z,9.60
2018-12-03T04:36:14.737Z,9.60
2018-12-03T04:38:43.470Z,9.60
2018-12-03T04:41:11.623Z,9.60
2018-12-03T04:43:39.739Z,9.70
2018-12-03T04:46:07.864Z,9.70
2018-12-03T04:48:36.058Z,9.70
2018-12-03T04:51:04.327Z,9.70
2018-12-03T04:53:32.506Z,9.70
2018-12-03T04:56:00.773Z,9.60
2018-12-03T04:58:28.927Z,9.60
2018-12-03T05:00:57.031Z,9.60
2018-12-03T05:03:25.154Z,9.50
2018-12-03T05:05:53.265Z,9.50
2018-12-03T05:08:21.811Z,9.40
2018-12-03T05:10:49.935Z,9.40
2018-12-03T05:13:18.090Z,9.40
2018-12-03T05:15:46.752Z,9.40
2018-12-03T05:18:15.259Z,9.50
2018-12-03T05:20:43.389Z,9.50
2018-12-03T05:23:11.524Z,9.40
2018-12-03T05:25:39.643Z,9.50
2018-12-03T05:28:07.765Z,9.50
2018-12-03T05:30:35.874Z,9.50
2018-12-03T05:33:03.996Z,9.40
2018-12-03T05:35:32.123Z,9.40
2018-12-03T05:38:00.245Z,9.40
2018-12-03T05:40:30.307Z,9.40
2018-12-03T05:42:58.424Z,9.40
2018-12-03T05:45:26.538Z,9.40
2018-12-03T05:47:54.679Z,9.40
2018-12-03T05:50:22.804Z,9.40
2018-12-03T05:52:50.930Z,9.40
2018-12-03T05:55:19.044Z,9.30
2018-12-03T05:57:47.141Z,9.30
2018-12-03T06:00:17.319Z,9.30
2018-12-03T06:02:45.453Z,9.30
2018-12-03T06:05:14.111Z,9.30
2018-12-03T06:07:42.257Z,9.30
2018-12-03T06:10:17.059Z,9.30
2018-12-03T06:12:45.153Z,9.40
2018-12-03T06:15:17.081Z,9.40
2018-12-03T06:17:45.826Z,9.40
2018-12-03T06:20:14.912Z,9.30
2018-12-03T06:22:43.105Z,9.30
2018-12-03T06:25:14.489Z,9.30
2018-12-03T06:27:42.592Z,9.30
2018-12-03T06:30:13.002Z,9.30
2018-12-03T06:32:41.101Z,9.20
2018-12-03T06:35:10.475Z,9.30
2018-12-03T06:37:38.589Z,9.30
2018-12-03T06:40:11.253Z,9.30
2018-12-03T06:42:39.449Z,9.30
2018-12-03T06:45:09.485Z,9.20
2018-12-03T06:47:37.870Z,9.20
2018-12-03T06:50:07.972Z,9.20
2018-12-03T06:52:36.072Z,9.20
2018-12-03T06:55:05.206Z,9.20
2018-12-03T06:57:33.307Z,9.20
2018-12-03T07:00:01.416Z,9.20
2018-12-03T07:02:29.528Z,9.20
2018-12-03T07:04:57.625Z,9.20
2018-12-03T07:07:25.737Z,9.20
2018-12-03T07:09:55.123Z,9.20
2018-12-03T07:12:21.990Z,9.10
2018-12-03T07:14:50.116Z,9.10
2018-12-03T07:17:18.229Z,9.10
2018-12-03T07:19:46.394Z,9.10
2018-12-03T07:22:14.511Z,9.10
2018-12-03T07:24:42.608Z,9.20
2018-12-03T07:27:10.722Z,9.20
2018-12-03T07:29:38.856Z,9.20
2018-12-03T07:32:06.972Z,9.20
2018-12-03T07:34:35.069Z,9.20
2018-12-03T07:37:03.193Z,9.20
2018-12-03T07:39:31.327Z,9.30
2018-12-03T07:41:59.471Z,9.30
2018-12-03T07:44:27.600Z,9.30
2018-12-03T07:46:55.722Z,9.20
2018-12-03T07:49:23.812Z,9.20
2018-12-03T07:51:51.971Z,9.20
2018-12-03T07:54:20.089Z,9.20
2018-12-03T07:56:48.188Z,9.20
2018-12-03T07:59:16.298Z,9.20
2018-12-03T08:01:44.863Z,9.30
2018-12-03T08:04:13.257Z,9.30
2018-12-03T08:06:41.394Z,9.30
2018-12-03T08:09:09.583Z,9.30
2018-12-03T08:11:37.715Z,9.20
2018-12-03T08:14:05.990Z,9.10
2018-12-03T08:16:34.121Z,9.10
2018-12-03T08:19:02.233Z,9.00
2018-12-03T08:21:30.531Z,9.00
2018-12-03T08:24:02.734Z,9.00
2018-12-03T08:26:30.960Z,9.20
2018-12-03T08:28:59.133Z,9.20
2018-12-03T08:31:27.722Z,9.30
2018-12-03T08:33:56.070Z,9.30
2018-12-03T08:36:24.488Z,9.20
2018-12-03T08:38:52.626Z,9.20
2018-12-03T08:41:20.770Z,9.20
2018-12-03T08:43:48.889Z,9.20
2018-12-03T08:46:17.168Z,9.20
2018-12-03T08:48:45.531Z,9.20
2018-12-03T08:51:13.632Z,9.20
2018-12-03T08:53:45.176Z,9.10
2018-12-03T08:56:13.452Z,9.10
2018-12-03T08:58:41.807Z,9.00
2018-12-03T09:01:11.901Z,8.90
2018-12-03T09:03:40.644Z,8.80
2018-12-03T09:06:11.359Z,8.80
2018-12-03T09:08:39.599Z,8.70
2018-12-03T09:11:10.098Z,8.70
2018-12-03T09:13:38.361Z,8.70
2018-12-03T09:16:06.785Z,8.80
2018-12-03T09:18:38.545Z,8.80
2018-12-03T09:21:11.497Z,8.80
2018-12-03T09:23:40.532Z,8.80
2018-12-03T09:26:09.342Z,8.70
2018-12-03T09:28:37.801Z,8.70
2018-12-03T09:31:06.196Z,8.70
2018-12-03T09:33:34.366Z,8.70
2018-12-03T09:36:02.538Z,8.70
2018-12-03T09:38:35.269Z,8.80
2018-12-03T09:41:05.983Z,8.80
2018-12-03T09:43:31.705Z,8.90
2018-12-03T09:45:59.814Z,8.90
2018-12-03T09:48:28.221Z,9.00
2018-12-03T09:50:56.338Z,9.10
2018-12-03T09:53:24.450Z,9.10
2018-12-03T09:55:52.605Z,9.20
2018-12-03T09:58:22.680Z,9.20
2018-12-03T10:00:50.819Z,9.20
2018-12-03T10:03:24.119Z,9.20
2018-12-03T10:05:56.925Z,9.00
2018-12-03T10:08:26.506Z,8.90
2018-12-03T10:10:58.379Z,8.80
2018-12-03T10:13:27.353Z,8.80
2018-12-03T10:15:55.482Z,8.80
2018-12-03T10:18:23.791Z,8.90
2018-12-03T10:20:57.579Z,9.00
2018-12-03T10:23:26.254Z,9.20
2018-12-03T10:25:55.691Z,9.30
2018-12-03T10:28:24.271Z,9.40
2018-12-03T10:30:53.762Z,9.40
2018-12-03T10:33:29.217Z,9.40
2018-12-03T10:35:58.634Z,9.30
2018-12-03T10:38:29.656Z,9.30
2018-12-03T10:41:02.385Z,9.40
2018-12-03T10:43:30.519Z,9.40
2018-12-03T10:45:58.631Z,9.40
2018-12-03T10:48:26.734Z,9.50
2018-12-03T10:50:54.860Z,9.50
2018-12-03T10:53:27.350Z,9.40
2018-12-03T10:55:55.572Z,9.30
2018-12-03T10:58:23.685Z,9.40
2018-12-03T11:01:03.314Z,9.40
2018-12-03T11:03:36.946Z,9.50
2018-12-03T11:06:10.623Z,9.70
2018-12-03T11:08:38.772Z,9.80
2018-12-03T11:11:06.888Z,9.90
2018-12-03T11:13:35.005Z,9.80
2018-12-03T11:16:03.142Z,9.70
2018-12-03T11:18:37.248Z,9.60
2018-12-03T11:21:05.975Z,9.50
2018-12-03T11:23:34.613Z,9.30
2018-12-03T11:26:02.239Z,9.20
2018-12-03T11:28:40.169Z,9.10
2018-12-03T11:31:12.688Z,8.90
2018-12-03T11:33:40.828Z,8.90
2018-12-03T11:36:08.978Z,9.00
2018-12-03T11:39:46.153Z,9.10
2018-12-03T11:42:14.287Z,9.20
2018-12-03T11:44:42.424Z,9.40
2018-12-03T11:47:10.545Z,9.40
2018-12-03T11:49:38.923Z,9.50
2018-12-03T11:52:07.157Z,9.50
2018-12-03T11:54:35.249Z,9.40
2018-12-03T11:57:03.378Z,9.40
2018-12-03T11:59:31.508Z,9.40
2018-12-03T12:01:59.681Z,9.50
2018-12-03T12:04:27.796Z,9.50
2018-12-03T12:06:55.896Z,9.50
2018-12-03T12:09:24.062Z,9.50
2018-12-03T12:11:52.168Z,9.50
2018-12-03T12:14:23.954Z,9.50
2018-12-03T12:16:52.078Z,9.40
2018-12-03T12:19:20.234Z,9.50
2018-12-03T12:21:48.346Z,9.50
2018-12-03T12:24:16.465Z,9.70
2018-12-03T12:26:44.617Z,9.90
2018-12-03T12:29:12.806Z,10.10
2018-12-03T12:31:40.922Z,10.20
2018-12-03T12:34:09.065Z,10.20
2018-12-03T12:36:37.170Z,10.10
2018-12-03T12:39:08.759Z,10.00
2018-12-03T12:41:37.171Z,10.00
2018-12-03T12:44:07.008Z,9.80
2018-12-03T12:46:35.702Z,9.70
2018-12-03T12:49:03.858Z,9.60
2018-12-03T12:51:31.942Z,9.50
2018-12-03T12:54:00.086Z,9.40
2018-12-03T12:56:28.206Z,9.40
2018-12-03T12:58:56.352Z,9.30
2018-12-03T13:01:24.446Z,9.30
2018-12-03T13:03:52.779Z,9.40
2018-12-03T13:06:20.890Z,9.30
2018-12-03T13:08:49.042Z,9.30
2018-12-03T13:11:17.201Z,9.40
2018-12-03T13:13:45.549Z,9.60
2018-12-03T13:16:13.659Z,9.60
2018-12-03T13:18:41.840Z,9.60
2018-12-03T13:21:09.932Z,9.50
2018-12-03T13:23:38.076Z,9.50
2018-12-03T13:26:07.311Z,9.40
2018-12-03T13:28:35.446Z,9.40
2018-12-03T13:31:03.598Z,9.30
2018-12-03T13:33:31.714Z,9.30
2018-12-03T13:36:00.071Z,9.20
2018-12-03T13:38:28.229Z,9.10
2018-12-03T13:41:27.501Z,9.10
2018-12-03T13:43:54.953Z,9.00
2018-12-03T13:46:22.435Z,9.00
2018-12-03T13:48:50.803Z,9.00
2018-12-03T13:51:18.266Z,9.00
2018-12-03T13:53:45.739Z,9.10
2018-12-03T13:56:13.229Z,9.10
2018-12-03T13:58:40.657Z,9.10
2018-12-03T14:01:08.130Z,9.00
2018-12-03T14:03:35.626Z,9.00
2018-12-03T14:06:03.220Z,9.00
2018-12-03T14:08:30.689Z,9.00
2018-12-03T14:10:58.178Z,9.00
2018-12-03T14:13:25.676Z,9.00
2018-12-03T14:15:53.154Z,9.00
2018-12-03T14:29:34.888Z,9.00
2018-12-03T14:32:02.357Z,8.90
2018-12-03T14:34:29.858Z,8.90
2018-12-03T14:36:57.328Z,8.90
2018-12-03T14:39:24.833Z,8.80
2018-12-03T14:41:52.332Z,8.80
2018-12-03T14:44:19.826Z,8.80
2018-12-03T14:46:47.337Z,8.70
2018-12-03T14:49:14.823Z,8.80
2018-12-03T14:51:42.343Z,8.80
2018-12-03T14:54:09.837Z,8.80
2018-12-03T14:56:37.309Z,8.80
2018-12-03T14:59:04.828Z,8.80
2018-12-03T15:01:32.305Z,8.80
2018-12-03T15:04:01.690Z,8.80
2018-12-03T15:06:29.191Z,8.80
2018-12-03T15:08:56.668Z,8.80
2018-12-03T15:11:24.241Z,8.90
2018-12-03T15:13:51.719Z,8.90
2018-12-03T15:16:19.247Z,8.90
2018-12-03T15:18:46.732Z,8.90
2018-12-03T15:21:14.244Z,8.90
2018-12-03T15:23:41.704Z,8.90
2018-12-03T15:26:09.181Z,8.80
2018-12-03T15:28:36.778Z,8.80
2018-12-03T15:31:04.296Z,8.80
2018-12-03T15:33:31.847Z,8.80
2018-12-03T15:35:59.319Z,8.80
2018-12-03T15:38:26.764Z,8.70
2018-12-03T15:40:54.271Z,8.70
2018-12-03T15:43:21.747Z,8.70
2018-12-03T15:45:49.252Z,8.60
2018-12-03T15:48:16.710Z,8.60
2018-12-03T15:50:44.203Z,8.60
2018-12-03T15:53:11.684Z,8.60
2018-12-03T15:55:39.212Z,8.60
2018-12-03T15:58:06.697Z,8.60
2018-12-03T16:00:34.174Z,8.70
2018-12-03T16:03:01.639Z,8.60
2018-12-03T16:05:29.110Z,8.60
2018-12-03T16:07:56.595Z,8.60
2018-12-03T16:10:24.115Z,8.60
2018-12-03T16:12:51.612Z,8.60
2018-12-03T16:15:19.224Z,8.60
2018-12-03T16:17:46.695Z,8.60
2018-12-03T16:20:14.271Z,8.60
2018-12-03T16:22:41.750Z,8.60
2018-12-03T16:25:09.260Z,8.60
2018-12-03T16:27:36.767Z,8.60
2018-12-03T16:30:05.273Z,8.60
2018-12-03T16:32:32.738Z,8.60
2018-12-03T16:35:00.493Z,8.60
2018-12-03T16:37:27.962Z,8.60
2018-12-03T16:39:55.429Z,8.60
2018-12-03T16:42:22.935Z,8.60
2018-12-03T16:44:50.403Z,8.60
2018-12-03T16:47:17.863Z,8.70
2018-12-03T16:49:45.354Z,8.80
2018-12-03T16:52:13.566Z,8.80
2018-12-03T16:54:41.058Z,8.80
2018-12-03T16:57:08.554Z,8.80
2018-12-03T16:59:36.283Z,8.80
2018-12-03T17:02:03.794Z,8.70
2018-12-03T17:04:31.274Z,8.70
2018-12-03T17:06:58.770Z,8.70
2018-12-03T17:09:26.275Z,8.70
2018-12-03T17:11:53.764Z,8.60
2018-12-03T17:14:21.227Z,8.60
2018-12-03T17:16:48.820Z,8.60
2018-12-03T17:19:16.289Z,8.60
2018-12-03T17:21:44.704Z,8.60
2018-12-03T17:24:12.174Z,8.60
2018-12-03T17:26:39.667Z,8.50
2018-12-03T17:29:07.177Z,8.60
2018-12-03T17:31:34.778Z,8.50
2018-12-03T17:34:02.414Z,8.50
2018-12-03T17:36:29.895Z,8.50
2018-12-03T17:38:57.407Z,8.50
2018-12-03T17:41:24.887Z,8.50
2018-12-03T17:43:52.421Z,8.50
2018-12-03T17:46:19.905Z,8.50
2018-12-03T17:48:47.421Z,8.40
2018-12-03T17:51:14.901Z,8.40
2018-12-03T17:53:42.390Z,8.40
2018-12-03T17:56:09.875Z,8.50
2018-12-03T17:58:37.365Z,8.50
2018-12-03T18:01:05.119Z,8.60
2018-12-03T18:03:32.678Z,8.60
2018-12-03T18:06:00.196Z,8.60
2018-12-03T18:08:27.696Z,8.60
2018-12-03T18:10:55.168Z,8.60
2018-12-03T18:13:22.665Z,8.60
2018-12-03T18:15:50.159Z,8.60
2018-12-03T18:18:17.630Z,8.60
2018-12-03T18:20:45.133Z,8.60
2018-12-03T18:23:12.675Z,8.60
2018-12-03T18:25:40.153Z,8.60
2018-12-03T18:28:07.623Z,8.50
2018-12-03T18:30:35.999Z,8.40
2018-12-03T18:33:03.663Z,8.40
2018-12-03T18:35:31.262Z,8.30
2018-12-03T18:37:58.759Z,8.30
2018-12-03T18:40:26.225Z,8.20
2018-12-03T18:42:53.694Z,8.20
2018-12-03T18:45:21.188Z,8.10
2018-12-03T18:47:48.648Z,8.00
2018-12-03T18:50:16.153Z,7.90
2018-12-03T18:52:43.653Z,7.80
2018-12-03T18:55:11.097Z,7.80
2018-12-03T18:57:38.594Z,7.80
2018-12-03T19:00:09.678Z,7.80
2018-12-03T19:02:37.137Z,7.80
2018-12-03T19:05:05.026Z,7.80
2018-12-03T19:07:32.495Z,7.90
2018-12-03T19:09:59.966Z,8.00
2018-12-03T19:12:28.537Z,8.00
2018-12-03T19:14:56.025Z,8.00
2018-12-03T19:17:23.518Z,8.00
2018-12-03T19:19:50.990Z,8.10
2018-12-03T19:22:18.462Z,8.00
2018-12-03T19:24:45.932Z,8.10
2018-12-03T19:27:13.411Z,8.10
2018-12-03T19:29:40.920Z,8.10
2018-12-03T19:32:08.402Z,8.10
2018-12-03T19:34:35.856Z,8.10
2018-12-03T19:37:03.350Z,8.10
2018-12-03T19:39:30.813Z,8.10
2018-12-03T19:41:58.312Z,8.10
2018-12-03T19:44:25.780Z,8.20
2018-12-03T19:46:53.640Z,8.20
2018-12-03T19:49:21.109Z,8.20
2018-12-03T19:51:48.578Z,8.20
2018-12-03T19:54:16.108Z,8.20
2018-12-03T19:56:43.685Z,8.20
2018-12-03T19:59:11.166Z,8.20
2018-12-03T20:01:38.656Z,8.10
2018-12-03T20:04:09.969Z,8.10
2018-12-03T20:06:37.442Z,8.10
2018-12-03T20:09:05.862Z,8.10
2018-12-03T20:11:33.344Z,8.00
2018-12-03T20:14:00.835Z,8.00
2018-12-03T20:16:28.396Z,8.10
2018-12-03T20:18:55.853Z,8.00
2018-12-03T20:21:23.634Z,8.00
2018-12-03T20:23:51.101Z,8.00
2018-12-03T20:26:18.594Z,8.00
2018-12-03T20:28:46.077Z,8.00
2018-12-03T20:31:14.483Z,8.00
2018-12-03T20:33:42.075Z,8.00
2018-12-03T20:36:09.582Z,8.00
2018-12-03T20:38:37.062Z,8.00
2018-12-03T20:41:04.518Z,8.00
2018-12-03T20:43:32.018Z,8.00
2018-12-03T20:46:02.731Z,8.00
2018-12-03T20:48:34.490Z,7.90
2018-12-03T20:51:02.073Z,7.90
2018-12-03T20:53:29.550Z,7.90
2018-12-03T20:55:57.036Z,8.00
2018-12-03T20:58:24.510Z,8.00
2018-12-03T21:00:51.987Z,8.00
2018-12-03T21:03:19.965Z,8.00
2018-12-03T21:05:47.460Z,7.90
2018-12-03T21:08:15.121Z,7.90
2018-12-03T21:10:42.606Z,7.80
2018-12-03T21:13:10.107Z,7.70
2018-12-03T21:15:37.562Z,7.80
2018-12-03T21:18:05.087Z,7.70
2018-12-03T21:20:32.575Z,7.70
2018-12-03T21:23:00.022Z,7.70
2018-12-03T21:25:27.508Z,7.70
2018-12-03T21:27:56.160Z,7.70
2018-12-03T21:30:23.642Z,7.70
2018-12-03T21:32:51.110Z,7.70
2018-12-03T21:35:18.582Z,7.80
2018-12-03T21:37:46.089Z,7.80
2018-12-03T21:40:13.908Z,7.80
2018-12-03T21:42:41.363Z,7.80
2018-12-03T21:45:08.860Z,7.80
2018-12-03T21:47:36.450Z,7.90
2018-12-03T21:50:05.917Z,7.90
2018-12-03T21:52:33.470Z,7.90
2018-12-03T21:55:00.970Z,7.90
2018-12-03T21:57:28.433Z,7.90
2018-12-03T21:59:56.985Z,7.90
2018-12-03T22:02:24.587Z,7.90
2018-12-03T22:04:52.047Z,7.90
2018-12-03T22:07:19.489Z,7.90
2018-12-03T22:09:46.957Z,7.90
2018-12-03T22:12:14.415Z,7.90
2018-12-03T22:14:41.875Z,7.90
2018-12-03T22:17:09.335Z,7.90
2018-12-03T22:19:36.831Z,7.90
2018-12-03T22:22:04.337Z,7.80
2018-12-03T22:24:31.815Z,7.80
2018-12-03T22:26:59.265Z,7.80
2018-12-03T22:29:26.708Z,7.80
2018-12-03T22:31:54.191Z,7.80
2018-12-03T22:34:23.041Z,7.70
2018-12-03T22:36:50.621Z,7.80
2018-12-03T22:39:18.089Z,7.80
2018-12-03T22:41:45.545Z,7.80
2018-12-03T22:44:13.121Z,7.80
2018-12-03T22:46:40.586Z,7.80
2018-12-03T22:49:08.075Z,7.80
2018-12-03T22:51:35.553Z,7.80
2018-12-03T22:54:03.011Z,7.80
2018-12-03T22:56:30.475Z,7.80
2018-12-03T22:58:58.927Z,7.70
2018-12-03T23:01:26.442Z,7.70
2018-12-03T23:03:53.943Z,7.70
2018-12-03T23:06:21.433Z,7.70
2018-12-03T23:08:48.895Z,7.70
2018-12-03T23:11:16.386Z,7.70
2018-12-03T23:13:43.862Z,7.70
2018-12-03T23:16:11.362Z,7.70
2018-12-03T23:18:38.807Z,7.60
2018-12-03T23:21:06.294Z,7.60
2018-12-03T23:23:33.766Z,7.50
2018-12-03T23:26:01.229Z,7.50
2018-12-03T23:28:28.682Z,7.60
2018-12-03T23:30:56.157Z,7.50
2018-12-03T23:33:23.626Z,7.40
2018-12-03T23:35:51.121Z,7.30
2018-12-03T23:38:18.591Z,7.20
2018-12-03T23:40:46.062Z,7.10
2018-12-03T23:43:13.546Z,7.00
2018-12-03T23:45:40.994Z,6.90
2018-12-03T23:48:08.458Z,6.90
2018-12-03T23:50:35.931Z,6.90
2018-12-03T23:53:03.409Z,6.90
2018-12-03T23:55:30.880Z,6.90
2018-12-03T23:57:58.325Z,7.00
